createdAt,value
2016-04-16T00:00:19.711Z,0
2016-04-16T00:01:19.980Z,0
2016-04-16T00:02:19.733Z,0
2016-04-16T00:03:19.736Z,0
2016-04-16T00:04:19.833Z,0
2016-04-16T00:05:19.757Z,0
2016-04-16T00:06:19.760Z,0
2016-04-16T00:07:19.762Z,0
2016-04-16T00:08:19.968Z,0
2016-04-16T00:09:19.924Z,0
2016-04-16T00:10:19.785Z,0
2016-04-16T00:11:19.788Z,0
2016-04-16T00:12:19.947Z,0
2016-04-16T00:13:19.809Z,0
2016-04-16T00:14:19.812Z,0
2016-04-16T00:15:19.831Z,0
2016-04-16T00:16:19.959Z,0
2016-04-16T00:17:19.837Z,0
2016-04-16T00:18:20.042Z,0
2016-04-16T00:19:19.685Z,0
2016-04-16T00:20:19.844Z,0
2016-04-16T00:21:19.847Z,0
2016-04-16T00:22:19.850Z,0
2016-04-16T00:23:19.868Z,0
2016-04-16T00:24:19.981Z,0
2016-04-16T00:25:19.889Z,0
2016-04-16T00:26:19.986Z,0
2016-04-16T00:27:19.909Z,0
2016-04-16T00:28:20.053Z,0
2016-04-16T00:29:20.056Z,0
2016-04-16T00:30:19.917Z,0
2016-04-16T00:31:20.077Z,0
2016-04-16T00:32:19.922Z,0
2016-04-16T00:33:19.941Z,0
2016-04-16T00:34:19.991Z,0
2016-04-16T00:35:19.947Z,0
2016-04-16T00:36:19.950Z,0
2016-04-16T00:37:19.968Z,0
2016-04-16T00:38:19.971Z,0
2016-04-16T00:39:19.973Z,0
2016-04-16T00:40:20.257Z,0
2016-04-16T00:41:19.979Z,0
2016-04-16T00:42:20.012Z,0
2016-04-16T00:43:20.015Z,0
2016-04-16T00:44:20.017Z,0
2016-04-16T00:45:20.161Z,0
2016-04-16T00:46:20.023Z,0
2016-04-16T00:47:20.026Z,0
2016-04-16T00:48:20.138Z,0
2016-04-16T00:49:20.048Z,0
2016-04-16T00:50:20.112Z,0
2016-04-16T00:51:20.053Z,0
2016-04-16T00:52:20.070Z,0
2016-04-16T00:53:20.074Z,0
2016-04-16T00:54:20.092Z,0
2016-04-16T00:55:20.095Z,0
2016-04-16T00:56:20.098Z,0
2016-04-16T00:57:20.100Z,0
2016-04-16T00:58:20.103Z,0
2016-04-16T00:59:20.120Z,0
2016-04-16T01:00:20.123Z,0
2016-04-16T01:01:20.219Z,0
2016-04-16T01:02:20.128Z,0
2016-04-16T01:03:20.147Z,0
2016-04-16T01:04:20.150Z,0
2016-04-16T01:05:20.294Z,0
2016-04-16T01:06:20.202Z,0
2016-04-16T01:07:20.189Z,0
2016-04-16T01:08:20.191Z,0
2016-04-16T01:09:20.179Z,0
2016-04-16T01:10:20.197Z,0
2016-04-16T01:11:20.199Z,0
2016-04-16T01:12:20.202Z,0
2016-04-16T01:13:20.220Z,0
2016-04-16T01:14:20.240Z,0
2016-04-16T01:15:20.226Z,0
2016-04-16T01:16:20.245Z,0
2016-04-16T01:17:20.262Z,0
2016-04-16T01:18:20.265Z,0
2016-04-16T01:19:20.253Z,0
2016-04-16T01:20:20.286Z,0
2016-04-16T01:21:20.274Z,0
2016-04-16T01:22:20.292Z,0
2016-04-16T01:23:20.295Z,0
2016-04-16T01:24:20.297Z,0
2016-04-16T01:25:20.315Z,0
2016-04-16T01:26:20.317Z,0
2016-04-16T01:27:20.352Z,0
2016-04-16T01:28:20.370Z,0
2016-04-16T01:29:20.389Z,0
2016-04-16T01:30:20.360Z,0
2016-04-16T01:31:20.394Z,0
2016-04-16T01:32:20.366Z,0
2016-04-16T01:33:20.368Z,0
2016-04-16T01:34:20.371Z,0
2016-04-16T01:35:20.452Z,0
2016-04-16T01:36:20.391Z,0
2016-04-16T01:37:20.410Z,0
2016-04-16T01:38:20.413Z,0
2016-04-16T01:39:20.446Z,0
2016-04-16T01:40:20.418Z,0
2016-04-16T01:41:20.437Z,0
2016-04-16T01:42:20.439Z,0
2016-04-16T01:43:20.457Z,0
2016-04-16T01:44:20.460Z,0
2016-04-16T01:45:20.463Z,0
2016-04-16T01:46:20.482Z,0
2016-04-16T01:47:20.500Z,0
2016-04-16T01:48:20.487Z,0
2016-04-16T01:49:20.490Z,0
2016-04-16T01:50:20.554Z,0
2016-04-16T01:51:20.526Z,0
2016-04-16T01:52:20.512Z,0
2016-04-16T01:53:20.547Z,0
2016-04-16T01:54:20.534Z,0
2016-04-16T01:55:20.537Z,0
2016-04-16T01:56:20.540Z,0
2016-04-16T01:57:20.558Z,0
2016-04-16T01:58:20.561Z,0
2016-04-16T01:59:20.563Z,0
2016-04-16T02:00:20.581Z,0
2016-04-16T02:01:20.599Z,0
2016-04-16T02:02:20.586Z,0
2016-04-16T02:03:20.609Z,0
2016-04-16T02:04:20.627Z,0
2016-04-16T02:05:20.708Z,0
2016-04-16T02:06:20.648Z,0
2016-04-16T02:07:20.636Z,0
2016-04-16T02:08:20.638Z,0
2016-04-16T02:09:20.641Z,0
2016-04-16T02:10:20.659Z,0
2016-04-16T02:11:20.662Z,0
2016-04-16T02:12:20.681Z,0
2016-04-16T02:13:20.683Z,0
2016-04-16T02:14:20.701Z,0
2016-04-16T02:15:20.703Z,0
2016-04-16T02:16:20.706Z,0
2016-04-16T02:17:20.708Z,0
2016-04-16T02:18:20.727Z,0
2016-04-16T02:19:20.714Z,0
2016-04-16T02:20:21.202Z,0
2016-04-16T02:21:20.610Z,0
2016-04-16T02:22:20.741Z,0
2016-04-16T02:23:20.759Z,0
2016-04-16T02:24:20.762Z,0
2016-04-16T02:25:20.764Z,0
2016-04-16T02:26:20.782Z,0
2016-04-16T02:27:20.785Z,0
2016-04-16T02:28:20.803Z,0
2016-04-16T02:29:20.807Z,0
2016-04-16T02:30:20.809Z,0
2016-04-16T02:31:20.827Z,0
2016-04-16T02:32:20.829Z,0
2016-04-16T02:33:20.832Z,0
2016-04-16T02:34:20.834Z,0
2016-04-16T02:35:20.853Z,0
2016-04-16T02:36:20.856Z,0
2016-04-16T02:37:20.859Z,0
2016-04-16T02:38:20.878Z,0
2016-04-16T02:39:20.880Z,0
2016-04-16T02:40:20.914Z,0
2016-04-16T02:41:20.900Z,0
2016-04-16T02:42:20.903Z,0
2016-04-16T02:43:20.905Z,0
2016-04-16T02:44:20.949Z,0
2016-04-16T02:45:21.011Z,0
2016-04-16T02:46:21.056Z,0
2016-04-16T02:47:21.118Z,0
2016-04-16T02:48:21.163Z,0
2016-04-16T02:49:21.197Z,0
2016-04-16T02:50:21.231Z,0
2016-04-16T02:51:21.249Z,0
2016-04-16T02:52:21.251Z,0
2016-04-16T02:53:21.270Z,0
2016-04-16T02:54:21.278Z,0
2016-04-16T02:55:21.302Z,0
2016-04-16T02:56:21.326Z,0
2016-04-16T02:57:21.334Z,0
2016-04-16T02:58:21.358Z,0
2016-04-16T02:59:21.347Z,0
2016-04-16T03:00:21.368Z,0
2016-04-16T03:01:21.372Z,0
2016-04-16T03:02:21.378Z,0
2016-04-16T03:03:21.413Z,0
2016-04-16T03:04:21.401Z,0
2016-04-16T03:05:21.405Z,0
2016-04-16T03:06:21.408Z,0
2016-04-16T03:07:21.427Z,0
2016-04-16T03:08:21.430Z,0
2016-04-16T03:09:21.433Z,0
2016-04-16T03:10:21.436Z,0
2016-04-16T03:11:21.472Z,0
2016-04-16T03:12:21.459Z,0
2016-04-16T03:13:21.462Z,0
2016-04-16T03:14:21.480Z,0
2016-04-16T03:15:21.498Z,0
2016-04-16T03:16:21.486Z,0
2016-04-16T03:17:21.488Z,0
2016-04-16T03:18:21.506Z,0
2016-04-16T03:19:21.508Z,0
2016-04-16T03:20:21.543Z,0
2016-04-16T03:21:21.530Z,0
2016-04-16T03:22:21.564Z,0
2016-04-16T03:23:21.550Z,0
2016-04-16T03:24:21.585Z,0
2016-04-16T03:25:21.587Z,0
2016-04-16T03:26:21.574Z,0
2016-04-16T03:27:21.577Z,0
2016-04-16T03:28:21.580Z,0
2016-04-16T03:29:21.599Z,0
2016-04-16T03:30:21.601Z,0
2016-04-16T03:31:21.619Z,0
2016-04-16T03:32:21.607Z,0
2016-04-16T03:33:21.624Z,0
2016-04-16T03:34:21.643Z,0
2016-04-16T03:35:21.645Z,0
2016-04-16T03:36:21.648Z,0
2016-04-16T03:37:21.667Z,0
2016-04-16T03:38:21.670Z,0
2016-04-16T03:39:21.672Z,0
2016-04-16T03:40:21.690Z,0
2016-04-16T03:41:21.678Z,0
2016-04-16T03:42:21.695Z,0
2016-04-16T03:43:21.699Z,0
2016-04-16T03:44:21.717Z,0
2016-04-16T03:45:21.720Z,0
2016-04-16T03:46:21.722Z,0
2016-04-16T03:47:21.725Z,0
2016-04-16T03:48:21.728Z,0
2016-04-16T03:49:21.745Z,0
2016-04-16T03:50:21.748Z,0
2016-04-16T03:51:21.766Z,0
2016-04-16T03:52:21.770Z,0
2016-04-16T03:53:21.772Z,0
2016-04-16T03:54:21.775Z,0
2016-04-16T03:55:21.793Z,0
2016-04-16T03:56:21.811Z,0
2016-04-16T03:57:21.814Z,0
2016-04-16T03:58:21.816Z,0
2016-04-16T03:59:21.819Z,0
2016-04-16T04:00:21.821Z,0
2016-04-16T04:01:21.824Z,0
2016-04-16T04:02:21.109Z,0
2016-04-16T04:03:21.846Z,0
2016-04-16T04:04:21.849Z,0
2016-04-16T04:05:21.867Z,0
2016-04-16T04:06:21.885Z,0
2016-04-16T04:07:21.872Z,0
2016-04-16T04:08:21.890Z,0
2016-04-16T04:09:21.893Z,0
2016-04-16T04:10:21.912Z,0
2016-04-16T04:11:21.899Z,0
2016-04-16T04:12:21.917Z,0
2016-04-16T04:13:21.920Z,0
2016-04-16T04:14:21.937Z,4
2016-04-16T04:15:21.940Z,4
2016-04-16T04:16:21.959Z,4
2016-04-16T04:17:21.961Z,4
2016-04-16T04:18:21.964Z,4
2016-04-16T04:19:21.967Z,4
2016-04-16T04:20:21.970Z,8
2016-04-16T04:21:21.989Z,4
2016-04-16T04:22:21.991Z,4
2016-04-16T04:23:21.853Z,8
2016-04-16T04:24:22.011Z,8
2016-04-16T04:25:22.030Z,8
2016-04-16T04:26:22.032Z,8
2016-04-16T04:27:22.035Z,12
2016-04-16T04:28:22.038Z,8
2016-04-16T04:29:22.057Z,12
2016-04-16T04:30:22.060Z,8
2016-04-16T04:31:22.077Z,12
2016-04-16T04:32:22.065Z,12
2016-04-16T04:33:22.098Z,16
2016-04-16T04:34:22.102Z,16
2016-04-16T04:35:22.104Z,20
2016-04-16T04:36:22.122Z,20
2016-04-16T04:37:22.110Z,24
2016-04-16T04:38:22.112Z,20
2016-04-16T04:39:22.130Z,24
2016-04-16T04:40:22.117Z,24
2016-04-16T04:41:22.151Z,24
2016-04-16T04:42:22.153Z,28
2016-04-16T04:43:22.157Z,28
2016-04-16T04:44:22.175Z,32
2016-04-16T04:45:22.162Z,32
2016-04-16T04:46:22.181Z,36
2016-04-16T04:47:22.183Z,36
2016-04-16T04:48:22.201Z,36
2016-04-16T04:49:22.203Z,40
2016-04-16T04:50:22.519Z,40
2016-04-16T04:51:22.209Z,32
2016-04-16T04:52:22.212Z,40
2016-04-16T04:53:22.231Z,48
2016-04-16T04:54:22.249Z,44
2016-04-16T04:55:22.252Z,40
2016-04-16T04:56:22.254Z,40
2016-04-16T04:57:22.257Z,44
2016-04-16T04:58:22.274Z,56
2016-04-16T04:59:22.278Z,68
2016-04-16T05:00:22.280Z,72
2016-04-16T05:01:22.283Z,76
2016-04-16T05:02:22.317Z,76
2016-04-16T05:03:22.304Z,80
2016-04-16T05:04:22.307Z,84
2016-04-16T05:05:22.668Z,76
2016-04-16T05:06:22.327Z,80
2016-04-16T05:07:22.330Z,96
2016-04-16T05:08:22.352Z,96
2016-04-16T05:09:22.354Z,100
2016-04-16T05:10:22.357Z,100
2016-04-16T05:11:22.359Z,100
2016-04-16T05:12:22.363Z,104
2016-04-16T05:13:22.365Z,104
2016-04-16T05:14:22.384Z,104
2016-04-16T05:15:22.543Z,108
2016-04-16T05:16:22.404Z,108
2016-04-16T05:17:22.609Z,112
2016-04-16T05:18:22.409Z,112
2016-04-16T05:19:22.428Z,116
2016-04-16T05:20:22.431Z,116
2016-04-16T05:21:22.434Z,116
2016-04-16T05:22:22.624Z,120
2016-04-16T05:23:22.455Z,120
2016-04-16T05:24:22.458Z,128
2016-04-16T05:25:22.726Z,132
2016-04-16T05:26:22.525Z,132
2016-04-16T05:27:22.480Z,136
2016-04-16T05:28:22.500Z,136
2016-04-16T05:29:22.502Z,140
2016-04-16T05:30:22.505Z,136
2016-04-16T05:31:22.570Z,136
2016-04-16T05:32:22.542Z,136
2016-04-16T05:33:22.591Z,140
2016-04-16T05:34:22.874Z,140
2016-04-16T05:35:22.549Z,140
2016-04-16T05:36:22.552Z,136
2016-04-16T05:37:22.571Z,136
2016-04-16T05:38:22.573Z,136
2016-04-16T05:39:22.404Z,136
2016-04-16T05:40:22.579Z,136
2016-04-16T05:41:22.582Z,140
2016-04-16T05:42:22.849Z,136
2016-04-16T05:43:22.602Z,140
2016-04-16T05:44:22.651Z,140
2016-04-16T05:45:22.967Z,140
2016-04-16T05:46:22.626Z,144
2016-04-16T05:47:22.956Z,144
2016-04-16T05:48:22.648Z,144
2016-04-16T05:49:22.743Z,144
2016-04-16T05:50:22.668Z,144
2016-04-16T05:51:22.655Z,144
2016-04-16T05:52:22.673Z,144
2016-04-16T05:53:22.676Z,148
2016-04-16T05:54:23.006Z,148
2016-04-16T05:55:22.900Z,148
2016-04-16T05:56:22.700Z,152
2016-04-16T05:57:22.717Z,152
2016-04-16T05:58:22.955Z,156
2016-04-16T05:59:22.832Z,156
2016-04-16T06:00:22.726Z,160
2016-04-16T06:01:23.041Z,156
2016-04-16T06:02:22.747Z,160
2016-04-16T06:03:22.749Z,156
2016-04-16T06:04:22.908Z,164
2016-04-16T06:05:22.786Z,164
2016-04-16T06:06:23.179Z,164
2016-04-16T06:07:22.791Z,164
2016-04-16T06:08:22.810Z,168
2016-04-16T06:09:22.796Z,168
2016-04-16T06:10:22.815Z,172
2016-04-16T06:11:22.912Z,172
2016-04-16T06:12:22.821Z,176
2016-04-16T06:13:22.840Z,184
2016-04-16T06:14:22.935Z,192
2016-04-16T06:15:22.954Z,200
2016-04-16T06:16:22.848Z,208
2016-04-16T06:17:23.163Z,216
2016-04-16T06:18:22.853Z,220
2016-04-16T06:19:22.871Z,240
2016-04-16T06:20:22.904Z,256
2016-04-16T06:21:22.907Z,268
2016-04-16T06:22:23.003Z,280
2016-04-16T06:23:22.913Z,288
2016-04-16T06:24:22.915Z,292
2016-04-16T06:25:23.215Z,292
2016-04-16T06:26:22.937Z,288
2016-04-16T06:27:22.955Z,276
2016-04-16T06:28:23.238Z,284
2016-04-16T06:29:23.258Z,280
2016-04-16T06:30:37.135Z,264
2016-04-16T06:31:22.966Z,236
2016-04-16T06:32:22.999Z,192
2016-04-16T06:33:22.986Z,176
2016-04-16T06:34:23.239Z,172
2016-04-16T06:35:22.991Z,160
2016-04-16T06:36:23.011Z,140
2016-04-16T06:37:23.107Z,136
2016-04-16T06:38:23.016Z,132
2016-04-16T06:39:23.034Z,124
2016-04-16T06:40:23.037Z,124
2016-04-16T06:41:23.055Z,128
2016-04-16T06:42:23.043Z,136
2016-04-16T06:43:23.061Z,144
2016-04-16T06:44:23.329Z,144
2016-04-16T06:45:23.441Z,164
2016-04-16T06:46:23.084Z,172
2016-04-16T06:47:23.087Z,180
2016-04-16T06:48:22.809Z,180
2016-04-16T06:49:23.248Z,184
2016-04-16T06:50:23.126Z,184
2016-04-16T06:51:23.238Z,180
2016-04-16T06:52:23.132Z,188
2016-04-16T06:53:23.134Z,192
2016-04-16T06:54:23.137Z,200
2016-04-16T06:55:23.156Z,204
2016-04-16T06:56:23.455Z,208
2016-04-16T06:57:23.317Z,212
2016-04-16T06:58:23.164Z,212
2016-04-16T06:59:23.166Z,212
2016-04-16T07:00:23.528Z,216
2016-04-16T07:01:23.203Z,216
2016-04-16T07:02:23.502Z,224
2016-04-16T07:03:23.255Z,232
2016-04-16T07:04:23.227Z,236
2016-04-16T07:05:23.229Z,236
2016-04-16T07:06:23.278Z,244
2016-04-16T07:07:23.500Z,248
2016-04-16T07:08:23.252Z,236
2016-04-16T07:09:23.255Z,248
2016-04-16T07:10:23.273Z,256
2016-04-16T07:11:23.261Z,264
2016-04-16T07:12:23.280Z,256
2016-04-16T07:13:23.281Z,268
2016-04-16T07:14:23.441Z,276
2016-04-16T07:15:23.302Z,288
2016-04-16T07:16:23.477Z,296
2016-04-16T07:17:23.324Z,304
2016-04-16T07:18:23.310Z,304
2016-04-16T07:19:23.345Z,240
2016-04-16T07:20:23.565Z,272
2016-04-16T07:21:23.193Z,236
2016-04-16T07:22:23.384Z,276
2016-04-16T07:23:23.386Z,288
2016-04-16T07:24:23.405Z,320
2016-04-16T07:25:23.423Z,268
2016-04-16T07:26:23.395Z,316
2016-04-16T07:27:23.397Z,328
2016-04-16T07:28:23.384Z,344
2016-04-16T07:29:23.403Z,356
2016-04-16T07:30:23.390Z,380
2016-04-16T07:31:23.425Z,416
2016-04-16T07:32:23.427Z,448
2016-04-16T07:33:23.430Z,488
2016-04-16T07:34:23.463Z,504
2016-04-16T07:35:23.450Z,496
2016-04-16T07:36:23.313Z,488
2016-04-16T07:37:23.471Z,496
2016-04-16T07:38:23.474Z,484
2016-04-16T07:39:23.476Z,344
2016-04-16T07:40:23.338Z,344
2016-04-16T07:41:23.498Z,348
2016-04-16T07:42:23.499Z,360
2016-04-16T07:43:23.518Z,368
2016-04-16T07:44:23.521Z,376
2016-04-16T07:45:23.524Z,376
2016-04-16T07:46:23.543Z,372
2016-04-16T07:47:23.561Z,360
2016-04-16T07:48:23.563Z,340
2016-04-16T07:49:23.582Z,316
2016-04-16T07:50:23.568Z,292
2016-04-16T07:51:23.478Z,276
2016-04-16T07:52:23.590Z,280
2016-04-16T07:53:23.593Z,304
2016-04-16T07:54:23.595Z,312
2016-04-16T07:55:23.629Z,332
2016-04-16T07:56:23.617Z,380
2016-04-16T07:57:23.620Z,436
2016-04-16T07:58:23.621Z,472
2016-04-16T07:59:23.639Z,500
2016-04-16T08:00:23.643Z,528
2016-04-16T08:01:23.661Z,520
2016-04-16T08:02:23.678Z,516
2016-04-16T08:03:23.681Z,516
2016-04-16T08:04:23.669Z,480
2016-04-16T08:05:23.687Z,408
2016-04-16T08:06:23.783Z,396
2016-04-16T08:07:23.755Z,416
2016-04-16T08:08:23.555Z,364
2016-04-16T08:09:23.730Z,356
2016-04-16T08:10:23.732Z,352
2016-04-16T08:11:23.735Z,340
2016-04-16T08:12:23.737Z,344
2016-04-16T08:13:23.599Z,352
2016-04-16T08:14:23.758Z,348
2016-04-16T08:15:23.760Z,384
2016-04-16T08:16:23.780Z,380
2016-04-16T08:17:23.787Z,356
2016-04-16T08:18:23.790Z,372
2016-04-16T08:19:23.793Z,376
2016-04-16T08:20:23.810Z,364
2016-04-16T08:21:23.812Z,364
2016-04-16T08:22:23.691Z,388
2016-04-16T08:23:23.818Z,432
2016-04-16T08:24:23.837Z,452
2016-04-16T08:25:23.839Z,492
2016-04-16T08:26:23.858Z,516
2016-04-16T08:27:23.861Z,520
2016-04-16T08:28:23.863Z,520
2016-04-16T08:29:23.881Z,520
2016-04-16T08:30:23.884Z,492
2016-04-16T08:31:23.887Z,524
2016-04-16T08:32:23.889Z,476
2016-04-16T08:33:23.908Z,472
2016-04-16T08:34:23.895Z,468
2016-04-16T08:35:23.944Z,464
2016-04-16T08:36:23.932Z,432
2016-04-16T08:37:23.935Z,452
2016-04-16T08:38:23.937Z,528
2016-04-16T08:39:23.955Z,528
2016-04-16T08:40:23.989Z,552
2016-04-16T08:41:23.976Z,608
2016-04-16T08:42:23.963Z,528
2016-04-16T08:43:23.982Z,496
2016-04-16T08:44:24.000Z,488
2016-04-16T08:45:24.003Z,476
2016-04-16T08:46:24.021Z,488
2016-04-16T08:47:24.024Z,464
2016-04-16T08:48:24.026Z,484
2016-04-16T08:49:24.029Z,512
2016-04-16T08:50:24.063Z,524
2016-04-16T08:51:24.051Z,528
2016-04-16T08:52:24.068Z,396
2016-04-16T08:53:24.071Z,360
2016-04-16T08:54:24.074Z,356
2016-04-16T08:55:24.092Z,392
2016-04-16T08:56:24.095Z,488
2016-04-16T08:57:24.097Z,612
2016-04-16T08:58:24.100Z,616
2016-04-16T08:59:24.118Z,688
2016-04-16T09:00:24.137Z,580
2016-04-16T09:01:24.139Z,676
2016-04-16T09:02:24.127Z,676
2016-04-16T09:03:24.145Z,660
2016-04-16T09:04:24.147Z,660
2016-04-16T09:05:24.166Z,672
2016-04-16T09:06:24.169Z,668
2016-04-16T09:07:24.172Z,660
2016-04-16T09:08:24.189Z,664
2016-04-16T09:09:24.208Z,668
2016-04-16T09:10:24.210Z,672
2016-04-16T09:11:24.213Z,680
2016-04-16T09:12:24.216Z,684
2016-04-16T09:13:24.218Z,648
2016-04-16T09:14:24.237Z,624
2016-04-16T09:15:24.240Z,596
2016-04-16T09:16:24.258Z,552
2016-04-16T09:17:24.277Z,504
2016-04-16T09:18:24.278Z,468
2016-04-16T09:19:24.281Z,452
2016-04-16T09:20:24.315Z,452
2016-04-16T09:21:24.303Z,460
2016-04-16T09:22:24.305Z,476
2016-04-16T09:23:24.309Z,492
2016-04-16T09:24:24.326Z,584
2016-04-16T09:25:24.345Z,656
2016-04-16T09:26:24.331Z,672
2016-04-16T09:27:24.365Z,752
2016-04-16T09:28:24.353Z,696
2016-04-16T09:29:24.356Z,672
2016-04-16T09:30:24.374Z,688
2016-04-16T09:31:24.376Z,704
2016-04-16T09:32:24.379Z,680
2016-04-16T09:33:24.397Z,592
2016-04-16T09:34:24.400Z,544
2016-04-16T09:35:24.402Z,540
2016-04-16T09:36:24.421Z,556
2016-04-16T09:37:24.424Z,556
2016-04-16T09:38:24.427Z,520
2016-04-16T09:39:24.430Z,512
2016-04-16T09:40:24.447Z,556
2016-04-16T09:41:24.466Z,556
2016-04-16T09:42:24.452Z,580
2016-04-16T09:43:24.487Z,600
2016-04-16T09:44:24.489Z,676
2016-04-16T09:45:24.507Z,648
2016-04-16T09:46:24.495Z,576
2016-04-16T09:47:24.498Z,504
2016-04-16T09:48:24.515Z,460
2016-04-16T09:49:24.518Z,440
2016-04-16T09:50:24.552Z,500
2016-04-16T09:51:24.555Z,600
2016-04-16T09:52:24.543Z,656
2016-04-16T09:53:24.560Z,700
2016-04-16T09:54:24.563Z,728
2016-04-16T09:55:24.597Z,792
2016-04-16T09:56:24.600Z,692
2016-04-16T09:57:24.603Z,460
2016-04-16T09:58:24.589Z,464
2016-04-16T09:59:24.623Z,472
2016-04-16T10:00:24.610Z,488
2016-04-16T10:01:24.645Z,468
2016-04-16T10:02:24.632Z,500
2016-04-16T10:03:24.634Z,496
2016-04-16T10:04:24.652Z,480
2016-04-16T10:05:24.655Z,436
2016-04-16T10:06:24.674Z,432
2016-04-16T10:07:24.661Z,436
2016-04-16T10:08:24.680Z,388
2016-04-16T10:09:24.728Z,300
2016-04-16T10:10:24.731Z,248
2016-04-16T10:11:24.703Z,228
2016-04-16T10:12:24.721Z,208
2016-04-16T10:13:24.724Z,184
2016-04-16T10:14:24.742Z,172
2016-04-16T10:15:24.745Z,148
2016-04-16T10:16:24.747Z,128
2016-04-16T10:17:24.766Z,136
2016-04-16T10:18:24.768Z,140
2016-04-16T10:19:24.771Z,172
2016-04-16T10:20:24.773Z,252
2016-04-16T10:21:24.776Z,320
2016-04-16T10:22:24.795Z,352
2016-04-16T10:23:24.813Z,408
2016-04-16T10:24:24.816Z,472
2016-04-16T10:25:24.834Z,456
2016-04-16T10:26:24.837Z,400
2016-04-16T10:27:24.839Z,408
2016-04-16T10:28:24.858Z,472
2016-04-16T10:29:24.860Z,524
2016-04-16T10:30:24.863Z,544
2016-04-16T10:31:24.866Z,540
2016-04-16T10:32:24.900Z,504
2016-04-16T10:33:24.886Z,492
2016-04-16T10:34:24.889Z,452
2016-04-16T10:35:24.892Z,408
2016-04-16T10:36:24.911Z,376
2016-04-16T10:37:24.929Z,368
2016-04-16T10:38:24.931Z,352
2016-04-16T10:39:24.934Z,324
2016-04-16T10:40:24.936Z,312
2016-04-16T10:41:24.955Z,316
2016-04-16T10:42:24.958Z,340
2016-04-16T10:43:24.820Z,364
2016-04-16T10:44:24.979Z,372
2016-04-16T10:45:24.841Z,376
2016-04-16T10:46:25.000Z,384
2016-04-16T10:47:25.018Z,396
2016-04-16T10:48:25.021Z,412
2016-04-16T10:49:25.039Z,416
2016-04-16T10:50:25.026Z,396
2016-04-16T10:51:25.028Z,368
2016-04-16T10:52:25.047Z,356
2016-04-16T10:53:25.050Z,348
2016-04-16T10:54:25.084Z,352
2016-04-16T10:55:25.086Z,360
2016-04-16T10:56:25.089Z,360
2016-04-16T10:57:24.936Z,364
2016-04-16T10:58:25.095Z,348
2016-04-16T10:59:25.098Z,324
2016-04-16T11:00:25.101Z,300
2016-04-16T11:01:25.134Z,280
2016-04-16T11:02:25.121Z,276
2016-04-16T11:03:25.139Z,280
2016-04-16T11:04:25.142Z,280
2016-04-16T11:05:25.160Z,288
2016-04-16T11:06:25.163Z,284
2016-04-16T11:07:25.166Z,284
2016-04-16T11:08:25.184Z,284
2016-04-16T11:09:25.172Z,288
2016-04-16T11:10:25.205Z,300
2016-04-16T11:11:25.208Z,312
2016-04-16T11:12:25.226Z,332
2016-04-16T11:13:25.213Z,348
2016-04-16T11:14:25.231Z,364
2016-04-16T11:15:25.234Z,368
2016-04-16T11:16:25.268Z,352
2016-04-16T11:17:25.271Z,324
2016-04-16T11:18:25.257Z,300
2016-04-16T11:19:25.276Z,288
2016-04-16T11:20:25.279Z,304
2016-04-16T11:21:25.282Z,332
2016-04-16T11:22:25.299Z,364
2016-04-16T11:23:25.318Z,392
2016-04-16T11:24:25.321Z,408
2016-04-16T11:25:25.307Z,416
2016-04-16T11:26:25.170Z,420
2016-04-16T11:27:25.329Z,420
2016-04-16T11:28:25.347Z,412
2016-04-16T11:29:25.365Z,392
2016-04-16T11:30:25.352Z,372
2016-04-16T11:31:25.371Z,356
2016-04-16T11:32:25.373Z,348
2016-04-16T11:33:25.392Z,352
2016-04-16T11:34:25.395Z,352
2016-04-16T11:35:25.413Z,356
2016-04-16T11:36:25.400Z,372
2016-04-16T11:37:25.419Z,392
2016-04-16T11:38:25.436Z,408
2016-04-16T11:39:25.439Z,420
2016-04-16T11:40:25.442Z,432
2016-04-16T11:41:25.444Z,448
2016-04-16T11:42:25.463Z,460
2016-04-16T11:43:25.481Z,480
2016-04-16T11:44:25.483Z,488
2016-04-16T11:45:25.486Z,496
2016-04-16T11:46:25.489Z,492
2016-04-16T11:47:25.491Z,476
2016-04-16T11:48:25.494Z,472
2016-04-16T11:49:25.513Z,476
2016-04-16T11:50:25.559Z,488
2016-04-16T11:51:25.622Z,492
2016-04-16T11:52:25.669Z,488
2016-04-16T11:53:25.730Z,468
2016-04-16T11:54:25.777Z,456
2016-04-16T11:55:25.797Z,460
2016-04-16T11:56:25.097Z,480
2016-04-16T11:57:25.849Z,512
2016-04-16T11:58:25.884Z,548
2016-04-16T11:59:25.902Z,624
2016-04-16T12:00:25.925Z,680
2016-04-16T12:01:25.935Z,756
2016-04-16T12:02:25.943Z,852
2016-04-16T12:03:25.951Z,924
2016-04-16T12:04:25.960Z,996
2016-04-16T12:05:25.980Z,944
2016-04-16T12:06:25.985Z,1012
2016-04-16T12:07:26.194Z,848
2016-04-16T12:08:26.026Z,932
2016-04-16T12:09:26.032Z,940
2016-04-16T12:10:26.035Z,944
2016-04-16T12:11:26.039Z,1068
2016-04-16T12:12:26.042Z,1104
2016-04-16T12:13:26.061Z,1328
2016-04-16T12:14:25.971Z,1064
2016-04-16T12:15:26.083Z,648
2016-04-16T12:16:26.086Z,528
2016-04-16T12:17:26.106Z,416
2016-04-16T12:18:26.108Z,348
2016-04-16T12:19:26.112Z,328
2016-04-16T12:20:26.130Z,268
2016-04-16T12:21:26.133Z,264
2016-04-16T12:22:26.338Z,268
2016-04-16T12:23:26.138Z,288
2016-04-16T12:24:26.172Z,272
2016-04-16T12:25:26.159Z,272
2016-04-16T12:26:26.177Z,256
2016-04-16T12:27:26.180Z,268
2016-04-16T12:28:26.183Z,276
2016-04-16T12:29:26.200Z,276
2016-04-16T12:30:26.203Z,268
2016-04-16T12:31:26.222Z,256
2016-04-16T12:32:26.225Z,244
2016-04-16T12:33:26.290Z,236
2016-04-16T12:34:26.243Z,220
2016-04-16T12:35:26.245Z,204
2016-04-16T12:36:26.280Z,196
2016-04-16T12:37:26.472Z,188
2016-04-16T12:38:26.269Z,184
2016-04-16T12:39:26.272Z,196
2016-04-16T12:40:26.290Z,212
2016-04-16T12:41:26.293Z,212
2016-04-16T12:42:26.327Z,220
2016-04-16T12:43:26.314Z,216
2016-04-16T12:44:26.317Z,228
2016-04-16T12:45:26.320Z,192
2016-04-16T12:46:26.337Z,168
2016-04-16T12:47:26.356Z,160
2016-04-16T12:48:26.342Z,184
2016-04-16T12:49:26.362Z,196
2016-04-16T12:50:26.364Z,236
2016-04-16T12:51:26.367Z,284
2016-04-16T12:52:26.385Z,308
2016-04-16T12:53:26.387Z,312
2016-04-16T12:54:26.406Z,340
2016-04-16T12:55:26.424Z,320
2016-04-16T12:56:26.427Z,296
2016-04-16T12:57:26.430Z,268
2016-04-16T12:58:26.432Z,276
2016-04-16T12:59:26.450Z,284
2016-04-16T13:00:26.297Z,248
2016-04-16T13:01:26.472Z,288
2016-04-16T13:02:26.474Z,364
2016-04-16T13:03:26.477Z,388
2016-04-16T13:04:26.495Z,424
2016-04-16T13:05:26.498Z,368
2016-04-16T13:06:26.501Z,288
2016-04-16T13:07:26.535Z,256
2016-04-16T13:08:26.521Z,244
2016-04-16T13:09:26.524Z,236
2016-04-16T13:10:26.543Z,256
2016-04-16T13:11:26.545Z,340
2016-04-16T13:12:26.548Z,568
2016-04-16T13:13:26.551Z,564
2016-04-16T13:14:26.568Z,468
2016-04-16T13:15:26.572Z,452
2016-04-16T13:16:26.590Z,460
2016-04-16T13:17:26.592Z,460
2016-04-16T13:18:26.611Z,408
2016-04-16T13:19:26.598Z,404
2016-04-16T13:20:26.632Z,364
2016-04-16T13:21:26.635Z,304
2016-04-16T13:22:26.653Z,268
2016-04-16T13:23:26.687Z,268
2016-04-16T13:24:26.659Z,268
2016-04-16T13:25:26.677Z,288
2016-04-16T13:26:26.695Z,268
2016-04-16T13:27:26.683Z,260
2016-04-16T13:28:26.685Z,292
2016-04-16T13:29:26.719Z,276
2016-04-16T13:30:26.705Z,332
2016-04-16T13:31:26.708Z,304
2016-04-16T13:32:26.727Z,280
2016-04-16T13:33:26.729Z,240
2016-04-16T13:34:26.732Z,220
2016-04-16T13:35:26.750Z,220
2016-04-16T13:36:26.753Z,216
2016-04-16T13:37:26.772Z,208
2016-04-16T13:38:26.774Z,192
2016-04-16T13:39:26.777Z,200
2016-04-16T13:40:26.795Z,200
2016-04-16T13:41:26.782Z,232
2016-04-16T13:42:26.801Z,240
2016-04-16T13:43:26.803Z,224
2016-04-16T13:44:26.854Z,216
2016-04-16T13:45:26.840Z,244
2016-04-16T13:46:26.843Z,256
2016-04-16T13:47:26.846Z,300
2016-04-16T13:48:26.864Z,292
2016-04-16T13:49:26.867Z,400
2016-04-16T13:50:26.884Z,284
2016-04-16T13:51:26.887Z,400
2016-04-16T13:52:26.889Z,312
2016-04-16T13:53:26.908Z,252
2016-04-16T13:54:26.911Z,232
2016-04-16T13:55:26.913Z,268
2016-04-16T13:56:26.931Z,324
2016-04-16T13:57:26.934Z,432
2016-04-16T13:58:26.937Z,552
2016-04-16T13:59:26.222Z,500
2016-04-16T14:00:26.942Z,444
2016-04-16T14:01:26.961Z,392
2016-04-16T14:02:26.980Z,324
2016-04-16T14:03:26.966Z,516
2016-04-16T14:04:26.985Z,316
2016-04-16T14:05:26.987Z,348